createdAt,value
2019-03-19T00:00:41.543Z,95.62
2019-03-19T00:01:41.537Z,95.83
2019-03-19T00:02:41.529Z,96.08
2019-03-19T00:03:41.518Z,95.83
2019-03-19T00:04:41.496Z,96.25
2019-03-19T00:05:41.508Z,95.72
2019-03-19T00:06:41.487Z,96.04
2019-03-19T00:07:41.471Z,96.25
2019-03-19T00:08:41.473Z,96.25
2019-03-19T00:09:41.437Z,95.83
2019-03-19T00:10:41.434Z,95.83
2019-03-19T00:11:41.427Z,95.41
2019-03-19T00:12:41.442Z,95.51
2019-03-19T00:13:41.421Z,94.99
2019-03-19T00:14:41.388Z,95.31
2019-03-19T00:15:41.393Z,95.41
2019-03-19T00:16:41.429Z,95.51
2019-03-19T00:17:41.409Z,95.62
2019-03-19T00:18:41.428Z,94.99
2019-03-19T00:19:41.398Z,95.56
2019-03-19T00:20:41.410Z,95.14
2019-03-19T00:21:41.329Z,95.03
2019-03-19T00:22:41.300Z,94.68
2019-03-19T00:23:41.317Z,94.40
2019-03-19T00:24:41.290Z,94.72
2019-03-19T00:25:41.303Z,94.40
2019-03-19T00:26:41.257Z,94.51
2019-03-19T00:27:41.284Z,94.51
2019-03-19T00:28:41.240Z,94.62
2019-03-19T00:29:41.251Z,94.51
2019-03-19T00:30:41.227Z,94.51
2019-03-19T00:31:41.227Z,94.24
2019-03-19T00:32:41.192Z,94.62
2019-03-19T00:33:41.183Z,94.51
2019-03-19T00:34:41.177Z,94.51
2019-03-19T00:35:41.182Z,94.82
2019-03-19T00:36:41.179Z,94.82
2019-03-19T00:37:41.139Z,94.87
2019-03-19T00:38:41.138Z,95.18
2019-03-19T00:39:41.121Z,94.97
2019-03-19T00:40:41.122Z,94.87
2019-03-19T00:41:41.106Z,94.72
2019-03-19T00:42:41.086Z,94.97
2019-03-19T00:43:41.089Z,94.97
2019-03-19T00:44:41.068Z,94.51
2019-03-19T00:45:41.054Z,94.66
2019-03-19T00:46:41.043Z,94.97
2019-03-19T00:47:41.045Z,94.56
2019-03-19T00:48:41.033Z,94.56
2019-03-19T00:49:40.998Z,94.76
2019-03-19T00:50:40.997Z,94.56
2019-03-19T00:51:40.996Z,94.24
2019-03-19T00:52:41.013Z,94.87
2019-03-19T00:53:40.988Z,94.87
2019-03-19T00:54:40.956Z,94.87
2019-03-19T00:55:41.242Z,95.18
2019-03-19T00:56:40.994Z,95.07
2019-03-19T00:57:40.929Z,95.64
2019-03-19T00:58:40.908Z,94.70
2019-03-19T00:59:40.923Z,95.81
2019-03-19T01:00:40.887Z,95.75
2019-03-19T01:01:40.886Z,95.64
2019-03-19T01:02:40.880Z,95.39
2019-03-19T01:03:40.885Z,95.43
2019-03-19T01:04:40.857Z,94.97
2019-03-19T01:05:40.888Z,95.50
2019-03-19T01:06:40.822Z,95.54
2019-03-19T01:07:40.802Z,95.64
2019-03-19T01:08:40.802Z,95.64
2019-03-19T01:09:40.797Z,95.64
2019-03-19T01:10:40.775Z,95.64
2019-03-19T01:11:40.824Z,95.96
2019-03-19T01:12:40.765Z,95.86
2019-03-19T01:13:40.742Z,96.48
2019-03-19T01:14:40.730Z,96.37
2019-03-19T01:15:40.720Z,96.48
2019-03-19T01:16:40.716Z,96.48
2019-03-19T01:17:40.753Z,96.17
2019-03-19T01:18:40.708Z,96.06
2019-03-19T01:19:40.732Z,95.86
2019-03-19T01:20:40.695Z,95.86
2019-03-19T01:21:40.660Z,95.86
2019-03-19T01:22:40.658Z,96.31
2019-03-19T01:23:40.640Z,96.31
2019-03-19T01:24:40.614Z,96.31
2019-03-19T01:25:54.502Z,96.42
2019-03-19T01:26:41.604Z,96.42
2019-03-19T01:27:40.596Z,96.31
2019-03-19T01:28:40.572Z,96.53
2019-03-19T01:29:40.625Z,96.21
2019-03-19T01:30:40.551Z,95.90
2019-03-19T01:31:40.611Z,96.21
2019-03-19T01:32:40.552Z,96.42
2019-03-19T01:33:40.537Z,96.53
2019-03-19T01:34:40.518Z,96.73
2019-03-19T01:35:40.504Z,96.42
2019-03-19T01:36:40.494Z,96.42
2019-03-19T01:37:40.472Z,96.31
2019-03-19T01:38:40.517Z,96.04
2019-03-19T01:39:40.453Z,96.53
2019-03-19T01:40:40.446Z,96.25
2019-03-19T01:41:40.432Z,96.15
2019-03-19T01:42:40.414Z,96.36
2019-03-19T01:43:40.414Z,96.47
2019-03-19T01:44:40.408Z,96.47
2019-03-19T01:45:40.381Z,96.47
2019-03-19T01:46:40.381Z,96.67
2019-03-19T01:47:40.398Z,96.57
2019-03-19T01:48:40.352Z,96.57
2019-03-19T01:49:40.372Z,96.78
2019-03-19T01:50:40.350Z,96.67
2019-03-19T01:51:40.319Z,96.36
2019-03-19T01:52:40.321Z,96.99
2019-03-19T01:53:40.318Z,96.78
2019-03-19T01:54:40.315Z,96.67
2019-03-19T01:55:40.290Z,96.67
2019-03-19T01:56:40.293Z,96.78
2019-03-19T01:57:40.250Z,96.15
2019-03-19T01:58:40.251Z,96.15
2019-03-19T01:59:40.250Z,96.15
2019-03-19T02:00:40.250Z,96.41
2019-03-19T02:01:40.221Z,96.83
2019-03-19T02:02:40.222Z,96.83
2019-03-19T02:03:40.223Z,96.25
2019-03-19T02:04:40.184Z,96.51
2019-03-19T02:05:40.175Z,96.72
2019-03-19T02:06:40.217Z,96.93
2019-03-19T02:07:40.150Z,96.93
2019-03-19T02:08:40.139Z,96.72
2019-03-19T02:09:40.134Z,97.14
2019-03-19T02:10:40.112Z,97.03
2019-03-19T02:11:40.125Z,97.56
2019-03-19T02:12:40.121Z,97.24
2019-03-19T02:13:40.098Z,96.83
2019-03-19T02:14:40.085Z,97.03
2019-03-19T02:15:40.064Z,97.14
2019-03-19T02:16:40.076Z,97.14
2019-03-19T02:17:40.043Z,97.45
2019-03-19T02:18:40.033Z,97.14
2019-03-19T02:19:40.037Z,97.03
2019-03-19T02:20:40.019Z,97.03
2019-03-19T02:21:39.995Z,97.03
2019-03-19T02:22:39.992Z,97.08
2019-03-19T02:23:39.978Z,96.93
2019-03-19T02:24:39.970Z,97.24
2019-03-19T02:25:39.947Z,97.45
2019-03-19T02:26:39.934Z,97.08
2019-03-19T02:27:39.934Z,97.14
2019-03-19T02:28:39.926Z,97.14
2019-03-19T02:29:39.899Z,97.14
2019-03-19T02:30:39.920Z,96.93
2019-03-19T02:31:39.885Z,97.08
2019-03-19T02:32:39.869Z,96.97
2019-03-19T02:33:39.860Z,96.72
2019-03-19T02:34:39.865Z,96.93
2019-03-19T02:35:39.858Z,96.72
2019-03-19T02:36:39.865Z,96.87
2019-03-19T02:37:39.887Z,96.97
2019-03-19T02:38:39.798Z,96.72
2019-03-19T02:39:39.799Z,96.77
2019-03-19T02:40:39.785Z,96.66
2019-03-19T02:41:39.799Z,96.77
2019-03-19T02:42:39.764Z,96.97
2019-03-19T02:43:39.763Z,97.08
2019-03-19T02:44:39.754Z,96.66
2019-03-19T02:45:39.737Z,97.08
2019-03-19T02:46:39.722Z,96.34
2019-03-19T02:47:39.785Z,96.55
2019-03-19T02:48:39.722Z,96.55
2019-03-19T02:49:39.729Z,96.45
2019-03-19T02:50:39.665Z,96.55
2019-03-19T02:51:39.678Z,96.81
2019-03-19T02:52:39.688Z,96.81
2019-03-19T02:53:39.633Z,96.77
2019-03-19T02:54:39.671Z,96.59
2019-03-19T02:55:39.616Z,96.45
2019-03-19T02:56:39.606Z,96.59
2019-03-19T02:57:39.621Z,96.59
2019-03-19T02:58:39.591Z,96.59
2019-03-19T02:59:39.592Z,96.81
2019-03-19T03:00:39.602Z,96.49
2019-03-19T03:01:39.556Z,96.59
2019-03-19T03:02:39.553Z,96.81
2019-03-19T03:03:39.569Z,96.59
2019-03-19T03:04:39.524Z,96.39
2019-03-19T03:05:39.511Z,96.39
2019-03-19T03:06:39.506Z,96.43
2019-03-19T03:07:39.503Z,96.39
2019-03-19T03:08:39.513Z,96.39
2019-03-19T03:09:39.500Z,96.39
2019-03-19T03:10:39.467Z,96.39
2019-03-19T03:11:39.455Z,96.59
2019-03-19T03:12:39.440Z,96.59
2019-03-19T03:13:39.449Z,96.28
2019-03-19T03:14:39.420Z,96.28
2019-03-19T03:15:39.401Z,96.07
2019-03-19T03:16:39.391Z,96.07
2019-03-19T03:17:39.383Z,96.12
2019-03-19T03:18:39.373Z,96.39
2019-03-19T03:19:39.389Z,96.64
2019-03-19T03:20:39.364Z,96.75
2019-03-19T03:21:39.345Z,96.53
2019-03-19T03:22:39.369Z,96.75
2019-03-19T03:23:39.326Z,96.81
2019-03-19T03:24:39.346Z,96.95
2019-03-19T03:25:39.328Z,96.43
2019-03-19T03:26:47.817Z,97.06
2019-03-19T03:27:40.280Z,96.75
2019-03-19T03:28:39.265Z,97.06
2019-03-19T03:29:39.268Z,97.27
2019-03-19T03:30:39.272Z,97.27
2019-03-19T03:31:39.234Z,97.48
2019-03-19T03:32:39.236Z,97.02
2019-03-19T03:33:39.216Z,97.58
2019-03-19T03:34:39.210Z,97.86
2019-03-19T03:35:39.204Z,98.00
2019-03-19T03:36:39.245Z,97.96
2019-03-19T03:37:39.229Z,97.90
2019-03-19T03:38:39.154Z,97.80
2019-03-19T03:39:39.187Z,98.17
2019-03-19T03:40:39.165Z,98.22
2019-03-19T03:41:39.148Z,97.96
2019-03-19T03:42:39.114Z,98.11
2019-03-19T03:43:39.130Z,98.17
2019-03-19T03:44:39.080Z,97.96
2019-03-19T03:45:39.157Z,97.75
2019-03-19T03:46:39.075Z,97.75
2019-03-19T03:47:39.060Z,98.28
2019-03-19T03:48:39.045Z,98.07
2019-03-19T03:49:39.058Z,98.07
2019-03-19T03:50:39.025Z,98.28
2019-03-19T03:51:39.049Z,98.11
2019-03-19T03:52:39.015Z,98.38
2019-03-19T03:53:39.017Z,98.28
2019-03-19T03:54:39.021Z,98.17
2019-03-19T03:55:38.975Z,97.96
2019-03-19T03:56:38.997Z,98.59
2019-03-19T03:57:38.948Z,98.17
2019-03-19T03:58:38.939Z,98.28
2019-03-19T03:59:38.924Z,98.38
2019-03-19T04:00:38.971Z,98.69
2019-03-19T04:01:38.902Z,98.59
2019-03-19T04:02:38.917Z,98.38
2019-03-19T04:03:38.878Z,98.69
2019-03-19T04:04:38.917Z,98.59
2019-03-19T04:05:38.865Z,98.55
2019-03-19T04:06:38.846Z,98.80
2019-03-19T04:07:38.833Z,98.49
2019-03-19T04:08:38.837Z,98.80
2019-03-19T04:09:38.820Z,98.59
2019-03-19T04:10:38.809Z,98.69
2019-03-19T04:11:38.788Z,98.17
2019-03-19T04:12:38.792Z,98.38
2019-03-19T04:13:38.790Z,98.17
2019-03-19T04:14:38.755Z,98.17
2019-03-19T04:15:38.775Z,98.23
2019-03-19T04:16:38.733Z,97.86
2019-03-19T04:17:38.730Z,98.23
2019-03-19T04:18:38.720Z,98.23
2019-03-19T04:19:38.710Z,97.96
2019-03-19T04:20:38.685Z,97.92
2019-03-19T04:21:38.689Z,98.02
2019-03-19T04:22:38.674Z,98.13
2019-03-19T04:23:38.661Z,97.71
2019-03-19T04:24:38.679Z,98.13
2019-03-19T04:25:38.648Z,98.13
2019-03-19T04:26:38.634Z,97.96
2019-03-19T04:27:40.310Z,98.13
2019-03-19T04:28:38.607Z,98.28
2019-03-19T04:29:39.116Z,98.13
2019-03-19T04:30:38.594Z,98.07
2019-03-19T04:31:38.597Z,97.75
2019-03-19T04:32:38.554Z,97.75
2019-03-19T04:33:38.560Z,97.96
2019-03-19T04:34:38.549Z,98.07
2019-03-19T04:35:38.556Z,98.17
2019-03-19T04:36:38.525Z,97.75
2019-03-19T04:37:38.514Z,97.96
2019-03-19T04:38:38.491Z,97.96
2019-03-19T04:39:38.481Z,97.86
2019-03-19T04:40:38.508Z,97.75
2019-03-19T04:41:38.468Z,97.96
2019-03-19T04:42:38.480Z,97.96
2019-03-19T04:43:38.431Z,98.17
2019-03-19T04:44:38.423Z,97.90
2019-03-19T04:45:38.429Z,98.07
2019-03-19T04:46:38.412Z,98.07
2019-03-19T04:47:38.386Z,98.07
2019-03-19T04:48:38.381Z,98.00
2019-03-19T04:49:38.385Z,97.80
2019-03-19T04:50:38.406Z,98.32
2019-03-19T04:51:38.372Z,97.64
2019-03-19T04:52:38.423Z,98.00
2019-03-19T04:53:38.425Z,97.96
2019-03-19T04:54:38.369Z,98.00
2019-03-19T04:55:38.424Z,98.00
2019-03-19T04:56:38.318Z,98.00
2019-03-19T04:57:38.301Z,98.00
2019-03-19T04:58:38.277Z,97.80
2019-03-19T04:59:38.261Z,98.00
2019-03-19T05:00:38.264Z,98.00
2019-03-19T05:01:38.254Z,98.00
2019-03-19T05:02:38.289Z,98.00
2019-03-19T05:03:38.217Z,98.22
2019-03-19T05:04:38.224Z,98.00
2019-03-19T05:05:38.190Z,98.00
2019-03-19T05:06:38.186Z,97.80
2019-03-19T05:07:38.164Z,97.48
2019-03-19T05:08:38.183Z,97.58
2019-03-19T05:09:38.153Z,97.58
2019-03-19T05:10:38.135Z,97.48
2019-03-19T05:11:38.126Z,97.38
2019-03-19T05:12:38.119Z,97.21
2019-03-19T05:13:38.130Z,97.00
2019-03-19T05:14:38.103Z,96.89
2019-03-19T05:15:38.099Z,97.00
2019-03-19T05:16:38.077Z,97.00
2019-03-19T05:17:38.064Z,97.00
2019-03-19T05:18:38.078Z,97.00
2019-03-19T05:19:38.050Z,97.00
2019-03-19T05:20:38.030Z,97.31
2019-03-19T05:21:38.029Z,97.42
2019-03-19T05:22:38.022Z,97.42
2019-03-19T05:23:37.999Z,97.21
2019-03-19T05:24:38.015Z,97.53
2019-03-19T05:25:37.985Z,97.42
2019-03-19T05:26:37.967Z,97.42
2019-03-19T05:27:38.050Z,97.53
2019-03-19T05:28:37.946Z,97.53
2019-03-19T05:29:37.943Z,97.25
2019-03-19T05:30:37.972Z,97.63
2019-03-19T05:31:37.909Z,97.74
2019-03-19T05:32:37.897Z,97.94
2019-03-19T05:33:37.882Z,98.05
2019-03-19T05:34:37.884Z,98.05
2019-03-19T05:35:37.953Z,97.94
2019-03-19T05:36:37.858Z,97.84
2019-03-19T05:37:37.850Z,98.26
2019-03-19T05:38:37.847Z,97.94
2019-03-19T05:39:37.827Z,97.84
2019-03-19T05:40:37.828Z,98.05
2019-03-19T05:41:37.810Z,98.16
2019-03-19T05:42:37.807Z,98.26
2019-03-19T05:43:37.795Z,97.94
2019-03-19T05:44:37.778Z,98.16
2019-03-19T05:45:37.773Z,98.26
2019-03-19T05:46:37.768Z,98.05
2019-03-19T05:47:40.342Z,98.00
2019-03-19T05:48:37.728Z,97.80
2019-03-19T05:49:37.725Z,98.00
2019-03-19T05:50:37.703Z,98.11
2019-03-19T05:51:37.703Z,98.00
2019-03-19T05:52:37.686Z,97.90
2019-03-19T05:53:37.663Z,98.11
2019-03-19T05:54:37.693Z,98.07
2019-03-19T05:55:37.675Z,97.80
2019-03-19T05:56:37.666Z,98.22
2019-03-19T05:57:48.458Z,98.17
2019-03-19T05:58:38.629Z,98.07
2019-03-19T05:59:39.943Z,98.23
2019-03-19T06:00:37.575Z,98.02
2019-03-19T06:01:37.595Z,98.02
2019-03-19T06:02:37.611Z,97.60
2019-03-19T06:03:37.559Z,97.81
2019-03-19T06:04:37.537Z,97.87
2019-03-19T06:05:37.536Z,97.77
2019-03-19T06:06:37.570Z,97.87
2019-03-19T06:07:37.530Z,97.77
2019-03-19T06:08:37.525Z,97.83
2019-03-19T06:09:37.531Z,97.66
2019-03-19T06:10:37.496Z,97.72
2019-03-19T06:11:37.452Z,97.41
2019-03-19T06:12:37.460Z,96.89
2019-03-19T06:13:37.464Z,96.99
2019-03-19T06:14:37.423Z,96.99
2019-03-19T06:15:37.439Z,96.89
2019-03-19T06:16:37.426Z,97.09
2019-03-19T06:17:37.422Z,96.89
2019-03-19T06:18:37.393Z,97.05
2019-03-19T06:19:37.398Z,96.84
2019-03-19T06:20:37.374Z,96.84
2019-03-19T06:21:37.372Z,96.94
2019-03-19T06:22:37.368Z,96.73
2019-03-19T06:23:37.353Z,96.69
2019-03-19T06:24:37.429Z,96.90
2019-03-19T06:25:37.335Z,97.22
2019-03-19T06:26:37.297Z,96.80
2019-03-19T06:27:37.287Z,96.80
2019-03-19T06:28:37.296Z,97.28
2019-03-19T06:29:37.339Z,96.86
2019-03-19T06:30:37.291Z,97.06
2019-03-19T06:31:37.284Z,96.81
2019-03-19T06:32:37.226Z,97.13
2019-03-19T06:33:37.257Z,96.71
2019-03-19T06:34:37.216Z,97.02
2019-03-19T06:35:37.190Z,96.92
2019-03-19T06:36:37.189Z,97.02
2019-03-19T06:37:37.183Z,96.61
2019-03-19T06:38:37.159Z,96.56
2019-03-19T06:39:37.167Z,96.25
2019-03-19T06:40:37.152Z,96.45
2019-03-19T06:41:37.138Z,96.14
2019-03-19T06:42:37.143Z,96.35
2019-03-19T06:43:37.140Z,96.45
2019-03-19T06:44:37.100Z,96.04
2019-03-19T06:45:37.105Z,95.62
2019-03-19T06:46:37.081Z,95.93
2019-03-19T06:47:37.166Z,95.68
2019-03-19T06:48:37.083Z,95.68
2019-03-19T06:49:37.050Z,95.26
2019-03-19T06:50:45.185Z,95.26
2019-03-19T06:51:38.044Z,95.47
2019-03-19T06:52:37.015Z,94.53
2019-03-19T06:53:37.024Z,95.37
2019-03-19T06:54:36.986Z,95.05
2019-03-19T06:55:36.971Z,94.95
2019-03-19T06:56:36.992Z,95.05
2019-03-19T06:57:39.382Z,94.95
2019-03-19T06:58:36.961Z,94.80
2019-03-19T06:59:36.963Z,94.90
2019-03-19T07:00:36.960Z,95.43
2019-03-19T07:01:36.904Z,94.38
2019-03-19T07:02:36.924Z,95.32
2019-03-19T07:03:36.880Z,95.43
2019-03-19T07:04:36.971Z,94.80
2019-03-19T07:05:36.865Z,94.90
2019-03-19T07:06:36.849Z,94.55
2019-03-19T07:07:36.847Z,94.65
2019-03-19T07:08:36.846Z,94.44
2019-03-19T07:09:36.839Z,94.65
2019-03-19T07:10:36.808Z,94.44
2019-03-19T07:11:36.795Z,94.29
2019-03-19T07:12:36.794Z,94.19
2019-03-19T07:13:36.793Z,94.29
2019-03-19T07:14:36.758Z,94.29
2019-03-19T07:15:36.788Z,94.04
2019-03-19T07:16:36.744Z,93.67
2019-03-19T07:17:36.727Z,93.98
2019-03-19T07:18:36.829Z,93.35
2019-03-19T07:19:36.720Z,93.98
2019-03-19T07:20:36.703Z,93.57
2019-03-19T07:21:36.687Z,93.77
2019-03-19T07:22:36.701Z,93.77
2019-03-19T07:23:36.659Z,93.88
2019-03-19T07:24:36.659Z,93.46
2019-03-19T07:25:36.669Z,94.09
2019-03-19T07:26:36.639Z,93.98
2019-03-19T07:27:36.683Z,94.15
2019-03-19T07:28:36.648Z,93.25
2019-03-19T07:29:36.602Z,94.15
2019-03-19T07:30:36.587Z,93.63
2019-03-19T07:31:36.585Z,94.04
2019-03-19T07:32:36.610Z,93.73
2019-03-19T07:33:36.657Z,93.63
2019-03-19T07:34:36.546Z,94.15
2019-03-19T07:35:36.537Z,93.73
2019-03-19T07:36:36.532Z,93.41
2019-03-19T07:37:36.525Z,93.16
2019-03-19T07:38:37.747Z,93.06
2019-03-19T07:39:36.487Z,93.37
2019-03-19T07:40:36.506Z,93.37
2019-03-19T07:41:36.466Z,92.22
2019-03-19T07:42:36.490Z,92.37
2019-03-19T07:43:36.449Z,92.27
2019-03-19T07:44:36.472Z,93.37
2019-03-19T07:45:36.473Z,93.27
2019-03-19T07:46:36.449Z,93.06
2019-03-19T07:47:36.395Z,93.27
2019-03-19T07:48:36.394Z,92.50
2019-03-19T07:49:36.376Z,92.65
2019-03-19T07:50:36.376Z,92.22
2019-03-19T07:51:36.368Z,91.87
2019-03-19T07:52:36.399Z,92.33
2019-03-19T07:53:36.355Z,92.44
2019-03-19T07:54:36.360Z,92.81
2019-03-19T07:55:36.368Z,92.91
2019-03-19T07:56:36.299Z,92.08
2019-03-19T07:57:36.291Z,92.81
2019-03-19T07:58:45.165Z,92.91
2019-03-19T07:59:37.329Z,92.14
2019-03-19T08:00:36.257Z,91.72
2019-03-19T08:01:36.353Z,91.52
2019-03-19T08:02:36.259Z,91.00
2019-03-19T08:03:36.223Z,91.83
2019-03-19T08:04:36.241Z,92.66
2019-03-19T08:05:36.218Z,91.52
2019-03-19T08:06:36.249Z,91.41
2019-03-19T08:07:36.215Z,91.52
2019-03-19T08:08:36.202Z,91.41
2019-03-19T08:09:36.258Z,91.04
2019-03-19T08:10:36.166Z,91.20
2019-03-19T08:11:36.140Z,91.00
2019-03-19T08:12:36.136Z,91.20
2019-03-19T08:13:36.161Z,91.10
2019-03-19T08:14:36.104Z,91.16
2019-03-19T08:15:36.120Z,91.10
2019-03-19T08:16:36.114Z,91.31
2019-03-19T08:17:36.101Z,91.10
2019-03-19T08:18:36.319Z,91.27
2019-03-19T08:19:36.192Z,91.37
2019-03-19T08:20:36.064Z,91.16
2019-03-19T08:21:36.037Z,91.37
2019-03-19T08:22:36.031Z,91.27
2019-03-19T08:23:36.029Z,89.91
2019-03-19T08:24:36.026Z,89.70
2019-03-19T08:25:35.978Z,89.56
2019-03-19T08:26:35.973Z,89.76
2019-03-19T08:27:35.965Z,89.87
2019-03-19T08:28:35.961Z,90.29
2019-03-19T08:29:35.936Z,90.19
2019-03-19T08:30:35.932Z,90.81
2019-03-19T08:31:35.929Z,90.19
2019-03-19T08:32:35.919Z,88.73
2019-03-19T08:33:36.001Z,88.62
2019-03-19T08:34:36.366Z,88.52
2019-03-19T08:35:37.934Z,88.48
2019-03-19T08:36:35.875Z,88.48
2019-03-19T08:37:35.887Z,88.06
2019-03-19T08:38:35.847Z,87.58
2019-03-19T08:39:36.698Z,87.33
2019-03-19T08:40:35.833Z,87.43
2019-03-19T08:41:35.830Z,87.54
2019-03-19T08:42:35.815Z,87.33
2019-03-19T08:43:35.797Z,87.33
2019-03-19T08:44:35.777Z,87.33
2019-03-19T08:45:35.762Z,87.12
2019-03-19T08:46:35.764Z,87.23
2019-03-19T08:47:35.746Z,87.40
2019-03-19T08:48:37.452Z,86.88
2019-03-19T08:49:35.735Z,87.40
2019-03-19T08:50:35.708Z,87.46
2019-03-19T08:51:35.708Z,86.42
2019-03-19T08:52:35.763Z,87.52
2019-03-19T08:53:35.697Z,86.38
2019-03-19T08:54:35.716Z,85.41
2019-03-19T08:55:35.655Z,85.55
2019-03-19T08:56:35.715Z,85.30
2019-03-19T08:57:35.676Z,85.68
2019-03-19T08:58:35.678Z,83.87
2019-03-19T08:59:35.603Z,83.15
2019-03-19T09:00:35.624Z,84.15
2019-03-19T09:01:35.589Z,82.55
2019-03-19T09:02:35.584Z,80.99
2019-03-19T09:03:35.563Z,80.85
2019-03-19T09:04:35.593Z,78.75
2019-03-19T09:05:35.560Z,77.19
2019-03-19T09:06:35.546Z,76.64
2019-03-19T09:07:35.539Z,76.40
2019-03-19T09:08:35.519Z,76.81
2019-03-19T09:09:35.517Z,75.67
2019-03-19T09:10:35.525Z,76.29
2019-03-19T09:11:36.612Z,74.50
2019-03-19T09:12:35.503Z,73.88
2019-03-19T09:13:35.451Z,73.33
2019-03-19T09:14:35.453Z,73.46
2019-03-19T09:15:35.489Z,74.05
2019-03-19T09:16:35.427Z,74.57
2019-03-19T09:17:35.414Z,73.50
2019-03-19T09:18:35.427Z,74.12
2019-03-19T09:19:35.396Z,72.78
2019-03-19T09:20:35.375Z,71.95
2019-03-19T09:21:35.372Z,71.64
2019-03-19T09:22:35.371Z,71.30
2019-03-19T09:23:35.338Z,72.33
2019-03-19T09:24:35.329Z,72.53
2019-03-19T09:25:35.331Z,71.95
2019-03-19T09:26:35.351Z,71.43
2019-03-19T09:27:35.303Z,71.64
2019-03-19T09:28:35.301Z,72.67
2019-03-19T09:29:35.330Z,72.47
2019-03-19T09:30:35.275Z,72.22
2019-03-19T09:31:35.261Z,71.09
2019-03-19T09:32:35.695Z,71.09
2019-03-19T09:33:35.251Z,71.37
2019-03-19T09:34:35.229Z,70.85
2019-03-19T09:35:35.217Z,71.16
2019-03-19T09:36:35.223Z,70.06
2019-03-19T09:37:35.235Z,69.64
2019-03-19T09:38:35.191Z,69.12
2019-03-19T09:39:35.226Z,69.64
2019-03-19T09:40:35.156Z,69.26
2019-03-19T09:41:35.145Z,69.29
2019-03-19T09:42:35.143Z,69.37
2019-03-19T09:43:35.158Z,71.05
2019-03-19T09:44:35.113Z,71.15
2019-03-19T09:45:35.118Z,70.74
2019-03-19T09:46:35.100Z,70.53
2019-03-19T09:47:35.088Z,71.15
2019-03-19T09:48:35.074Z,68.26
2019-03-19T09:49:35.097Z,68.40
2019-03-19T09:50:35.037Z,67.64
2019-03-19T09:51:35.171Z,68.88
2019-03-19T09:52:35.033Z,68.88
2019-03-19T09:53:35.045Z,67.25
2019-03-19T09:54:35.028Z,66.94
2019-03-19T09:55:34.988Z,68.67
2019-03-19T09:56:34.991Z,69.32
2019-03-19T09:57:34.999Z,70.01
2019-03-19T09:58:34.951Z,70.43
2019-03-19T09:59:34.962Z,68.88
2019-03-19T10:00:34.944Z,68.46
2019-03-19T10:01:34.914Z,69.19
2019-03-19T10:02:34.970Z,69.19
2019-03-19T10:03:34.915Z,67.50
2019-03-19T10:04:34.879Z,67.19
2019-03-19T10:05:34.896Z,66.26
2019-03-19T10:06:34.906Z,65.54
2019-03-19T10:07:34.896Z,64.78
2019-03-19T10:08:34.838Z,65.09
2019-03-19T10:09:34.836Z,65.92
2019-03-19T10:10:34.936Z,62.90
2019-03-19T10:11:34.846Z,61.32
2019-03-19T10:12:34.797Z,61.73
2019-03-19T10:13:34.807Z,59.77
2019-03-19T10:14:34.773Z,61.32
2019-03-19T10:15:34.772Z,59.77
2019-03-19T10:16:34.760Z,59.15
2019-03-19T10:17:34.797Z,60.18
2019-03-19T10:18:34.762Z,60.60
2019-03-19T10:19:34.726Z,61.08
2019-03-19T10:20:34.721Z,56.26
2019-03-19T10:21:34.703Z,56.44
2019-03-19T10:22:34.710Z,56.34
2019-03-19T10:23:34.721Z,56.34
2019-03-19T10:24:34.667Z,55.41
2019-03-19T10:25:34.650Z,57.17
2019-03-19T10:26:34.687Z,58.20
2019-03-19T10:27:34.637Z,57.06
2019-03-19T10:28:34.620Z,57.47
2019-03-19T10:29:38.631Z,58.40
2019-03-19T10:30:34.599Z,59.41
2019-03-19T10:31:34.636Z,55.93
2019-03-19T10:32:34.617Z,53.94
2019-03-19T10:33:34.575Z,55.28
2019-03-19T10:34:34.549Z,55.07
2019-03-19T10:35:34.553Z,55.38
2019-03-19T10:36:34.529Z,54.58
2019-03-19T10:37:34.532Z,55.20
2019-03-19T10:38:34.544Z,56.21
2019-03-19T10:39:34.504Z,56.31
2019-03-19T10:40:34.540Z,56.93
2019-03-19T10:41:34.485Z,56.31
2019-03-19T10:42:34.487Z,56.96
2019-03-19T10:43:34.453Z,56.98
2019-03-19T10:44:34.467Z,57.60
2019-03-19T10:45:34.488Z,58.64
2019-03-19T10:46:34.416Z,57.40
2019-03-19T10:47:34.470Z,58.22
2019-03-19T10:48:34.390Z,58.84
2019-03-19T10:49:34.388Z,57.50
2019-03-19T10:50:34.385Z,55.95
2019-03-19T10:51:35.283Z,57.60
2019-03-19T10:52:34.410Z,57.40
2019-03-19T10:53:34.350Z,57.09
2019-03-19T10:54:34.335Z,57.70
2019-03-19T10:55:34.322Z,57.60
2019-03-19T10:56:34.312Z,57.68
2019-03-19T10:57:34.338Z,57.47
2019-03-19T10:58:34.280Z,55.93
2019-03-19T10:59:34.302Z,56.03
2019-03-19T11:00:34.262Z,55.00
2019-03-19T11:01:34.288Z,54.58
2019-03-19T11:02:34.332Z,54.06
2019-03-19T11:03:34.272Z,55.30
2019-03-19T11:04:34.248Z,55.82
2019-03-19T11:05:34.240Z,56.13
2019-03-19T11:06:34.205Z,57.40
2019-03-19T11:07:34.215Z,57.68
2019-03-19T11:08:34.205Z,56.65
2019-03-19T11:09:34.187Z,55.85
2019-03-19T11:10:34.185Z,56.46
2019-03-19T11:11:34.152Z,54.71
2019-03-19T11:12:34.211Z,56.05
2019-03-19T11:13:34.206Z,55.33
2019-03-19T11:14:34.140Z,56.05
2019-03-19T11:15:34.106Z,55.23
2019-03-19T11:16:34.087Z,55.85
2019-03-19T11:17:34.131Z,55.23
2019-03-19T11:18:34.676Z,55.85
2019-03-19T11:19:34.071Z,55.64
2019-03-19T11:20:34.062Z,54.82
2019-03-19T11:21:34.062Z,54.09
2019-03-19T11:22:34.064Z,54.30
2019-03-19T11:23:34.016Z,54.61
2019-03-19T11:24:34.037Z,55.33
2019-03-19T11:25:34.001Z,54.19
2019-03-19T11:26:33.995Z,53.89
2019-03-19T11:27:34.245Z,54.30
2019-03-19T11:28:33.958Z,54.71
2019-03-19T11:29:33.966Z,53.89
2019-03-19T11:30:33.926Z,54.27
2019-03-19T11:31:34.042Z,53.96
2019-03-19T11:32:33.935Z,55.10
2019-03-19T11:33:33.943Z,53.96
2019-03-19T11:34:33.887Z,54.79
2019-03-19T11:35:33.893Z,54.27
2019-03-19T11:36:33.871Z,54.38
2019-03-19T11:37:33.912Z,55.30
2019-03-19T11:38:33.858Z,55.74
2019-03-19T11:39:33.827Z,56.05
2019-03-19T11:40:33.835Z,56.05
2019-03-19T11:41:33.811Z,54.71
2019-03-19T11:42:33.798Z,54.82
2019-03-19T11:43:33.805Z,55.30
2019-03-19T11:44:33.786Z,54.82
2019-03-19T11:45:33.765Z,54.79
2019-03-19T11:46:33.806Z,53.76
2019-03-19T11:47:33.771Z,53.86
2019-03-19T11:48:33.807Z,54.19
2019-03-19T11:49:33.756Z,53.14
2019-03-19T11:50:33.785Z,53.37
2019-03-19T11:51:33.725Z,52.86
2019-03-19T11:52:33.687Z,53.37
2019-03-19T11:53:33.712Z,53.16
2019-03-19T11:54:33.744Z,53.06
2019-03-19T11:55:33.689Z,54.09
2019-03-19T11:56:33.747Z,54.09
2019-03-19T11:57:33.667Z,54.40
2019-03-19T11:58:33.660Z,53.37
2019-03-19T11:59:33.651Z,53.27
2019-03-19T12:00:33.756Z,53.68
2019-03-19T12:01:33.620Z,53.58
2019-03-19T12:02:33.648Z,54.12
2019-03-19T12:03:33.572Z,52.47
2019-03-19T12:04:33.569Z,51.64
2019-03-19T12:05:33.543Z,51.92
2019-03-19T12:06:33.586Z,50.38
2019-03-19T12:07:33.589Z,50.99
2019-03-19T12:08:33.585Z,50.17
2019-03-19T12:09:33.522Z,50.48
2019-03-19T12:10:33.485Z,50.68
2019-03-19T12:11:33.538Z,51.41
2019-03-19T12:12:33.464Z,51.82
2019-03-19T12:13:33.458Z,51.72
2019-03-19T12:14:33.466Z,51.07
2019-03-19T12:15:33.431Z,50.87
2019-03-19T12:16:33.484Z,50.76
2019-03-19T12:17:33.406Z,49.63
2019-03-19T12:18:33.392Z,49.86
2019-03-19T12:19:33.454Z,49.84
2019-03-19T12:20:33.372Z,50.04
2019-03-19T12:21:33.433Z,50.25
2019-03-19T12:22:33.390Z,49.63
2019-03-19T12:23:33.430Z,49.53
2019-03-19T12:24:33.404Z,49.71
2019-03-19T12:25:33.355Z,50.43
2019-03-19T12:26:33.309Z,50.82
2019-03-19T12:27:33.298Z,50.62
2019-03-19T12:28:39.581Z,48.33
2019-03-19T12:29:34.321Z,47.19
2019-03-19T12:30:33.267Z,48.41
2019-03-19T12:31:33.260Z,46.86
2019-03-19T12:32:33.244Z,45.73
2019-03-19T12:33:40.756Z,45.50
2019-03-19T12:34:34.261Z,45.94
2019-03-19T12:35:33.210Z,46.33
2019-03-19T12:36:33.207Z,46.24
2019-03-19T12:37:33.226Z,45.52
2019-03-19T12:38:33.183Z,46.98
2019-03-19T12:39:33.219Z,47.83
2019-03-19T12:40:37.224Z,46.80
2019-03-19T12:41:33.147Z,46.80
2019-03-19T12:42:33.139Z,47.11
2019-03-19T12:43:33.139Z,46.70
2019-03-19T12:44:33.154Z,46.51
2019-03-19T12:45:33.107Z,47.13
2019-03-19T12:46:33.114Z,47.03
2019-03-19T12:47:33.091Z,47.85
2019-03-19T12:48:33.065Z,48.16
2019-03-19T12:49:33.053Z,48.88
2019-03-19T12:50:33.081Z,48.68
2019-03-19T12:51:33.048Z,49.71
2019-03-19T12:52:33.021Z,49.91